Terminal Aerodrome Forecast
Issued by NWS

Home | Current Version | Previous Version | Text Only | Print | Product List | Glossary On
Versions: 1 2 3 4 5 6 7 8 9 10 11 12 13 14 15 16 17
000
FTPA31 PHFO 260534
TAFHJR
TAF
PHJR 260534Z 2606/2706 VRB05KT P6SM FEW050
     FM262000 07010G18KT P6SM SCT025 SCT050
     FM270500 06006KT P6SM FEW025 SCT050=

USA.gov is the U.S. government's official web portal to all federal, state and local government web resources and services.